Tropical Cyclones
[Index]
Main Index Home Page Stock Weather Photos Extreme Storms Discussion Storm News and Storm Chasing Reports Tropical Cyclones / Hurricanes / Typhoons Weather Data and Links Wild Fires / Bushfires Weather Observation Techniques Weather Picture Catalogue Tornado Pictures and Reports Stock Video Footage and DVDs for sale
Season 1998-1999 Tropical Cyclone CHIKITA Track Map
Season 1998-1999 Summaries: [BoM-AU] [JTWC-AU] [JTWC-SIO] [JTWC-SPAC] [JTWC-SH]
<<- Previous TC | JTWC 1998-1999 Season | Next TC ->>

click for intensity scale information  Lat/long Grid: Show Hide

 Date Labels: Show Hide

Joint Typhoon Warning Centre Cyclone Data

Name: CHIKITA

29 Jan 1999 06:00 UTC to 05 Feb 1999 06:00 UTC

    date/time    lat    long     hPa   cat  kts
1999-01-29 06   13.7    96.3                  20          
1999-01-29 12   14.0    95.6                  20          
1999-01-29 18   14.4    94.8                  25          
1999-01-30 00   14.7    93.9                  25          
1999-01-30 06   15.0    93.0                  25          
1999-01-30 12   15.5    91.9                  25          
1999-01-30 18   15.9    90.5                  30          
1999-01-31 00   16.4    88.6                  30          
1999-01-31 06   16.8    85.9                  35          
1999-01-31 12   17.3    83.2            1     40          
1999-01-31 18   18.0    81.5            1     40          
1999-02-01 00   18.4    80.1            1     40          
1999-02-01 06   18.8    78.7            1     40          
1999-02-01 12   19.1    77.3            1     40          
1999-02-01 18   19.4    75.9            1     40          
1999-02-02 00   19.4    74.3            1     40          
1999-02-02 06   19.5    72.3            1     40          
1999-02-02 12   19.8    69.4            1     40          
1999-02-02 18   19.7    67.7            1     40          
1999-02-03 00   19.7    66.0            1     40          
1999-02-03 06   19.4    63.6                  35          
1999-02-03 12   19.0    61.7                  35          
1999-02-03 18   18.9    59.5                  25          
1999-02-04 00   19.3    57.9                  25          
1999-02-04 06   19.5    55.8                  25          
1999-02-04 12   19.5    54.0                  25          
1999-02-04 18   19.9    52.6                  30          
1999-02-05 00   21.0    51.3                  25          
1999-02-05 06   22.2    49.9                  25          
Winds are 1-min average.

Tropical cyclone tracks developed by Michael Bath using data from the Joint Typhoon Warning Centre Best Tracks and Google Maps.


[Australian Severe Weather index] [Copyright Notice] [Email Contacts] [Search This Site] [Privacy Policy]
Document: tropical_cyclone_chikita.htm Updated: 18 September 2016